sensor_id;sensor_type;location;lat;lon;timestamp;P1;durP1;ratioP1;P2;durP2;ratioP2
6475;SDS011;3271;51.910;5.840;2022-08-19T00:02:23;6.05;;;5.47;;
6475;SDS011;3271;51.910;5.840;2022-08-19T00:04:49;5.88;;;5.38;;
6475;SDS011;3271;51.910;5.840;2022-08-19T00:07:17;6.22;;;5.20;;
6475;SDS011;3271;51.910;5.840;2022-08-19T00:09:43;5.72;;;5.22;;
6475;SDS011;3271;51.910;5.840;2022-08-19T00:12:09;8.00;;;6.45;;
6475;SDS011;3271;51.910;5.840;2022-08-19T00:14:35;6.25;;;5.75;;
6475;SDS011;3271;51.910;5.840;2022-08-19T00:17:03;6.38;;;5.78;;
6475;SDS011;3271;51.910;5.840;2022-08-19T00:19:29;6.38;;;5.70;;
6475;SDS011;3271;51.910;5.840;2022-08-19T00:21:55;6.18;;;5.57;;
6475;SDS011;3271;51.910;5.840;2022-08-19T00:24:21;5.70;;;5.20;;
6475;SDS011;3271;51.910;5.840;2022-08-19T00:26:47;6.03;;;5.38;;
6475;SDS011;3271;51.910;5.840;2022-08-19T00:29:15;9.02;;;6.00;;
6475;SDS011;3271;51.910;5.840;2022-08-19T00:31:41;5.40;;;4.95;;
6475;SDS011;3271;51.910;5.840;2022-08-19T00:34:08;5.35;;;4.85;;
6475;SDS011;3271;51.910;5.840;2022-08-19T00:36:34;5.55;;;4.93;;
6475;SDS011;3271;51.910;5.840;2022-08-19T00:39:00;4.97;;;4.57;;
6475;SDS011;3271;51.910;5.840;2022-08-19T00:41:26;5.50;;;5.00;;
6475;SDS011;3271;51.910;5.840;2022-08-19T00:43:57;5.38;;;4.85;;
6475;SDS011;3271;51.910;5.840;2022-08-19T00:46:23;5.45;;;4.97;;
6475;SDS011;3271;51.910;5.840;2022-08-19T00:48:49;5.20;;;4.47;;
6475;SDS011;3271;51.910;5.840;2022-08-19T00:51:15;5.05;;;4.55;;
6475;SDS011;3271;51.910;5.840;2022-08-19T00:53:41;5.05;;;4.57;;
6475;SDS011;3271;51.910;5.840;2022-08-19T00:56:08;5.57;;;4.90;;
6475;SDS011;3271;51.910;5.840;2022-08-19T00:58:34;5.78;;;5.28;;
6475;SDS011;3271;51.910;5.840;2022-08-19T01:01:01;5.53;;;4.97;;
6475;SDS011;3271;51.910;5.840;2022-08-19T01:03:28;5.28;;;4.80;;
6475;SDS011;3271;51.910;5.840;2022-08-19T01:05:54;4.95;;;4.55;;
6475;SDS011;3271;51.910;5.840;2022-08-19T01:08:20;5.38;;;4.80;;
6475;SDS011;3271;51.910;5.840;2022-08-19T01:10:50;5.40;;;4.90;;
6475;SDS011;3271;51.910;5.840;2022-08-19T01:13:19;5.00;;;4.60;;
6475;SDS011;3271;51.910;5.840;2022-08-19T01:15:47;4.50;;;4.20;;
6475;SDS011;3271;51.910;5.840;2022-08-19T01:18:15;4.32;;;3.92;;
6475;SDS011;3271;51.910;5.840;2022-08-19T01:20:42;6.03;;;4.20;;
6475;SDS011;3271;51.910;5.840;2022-08-19T01:23:08;4.68;;;4.28;;
6475;SDS011;3271;51.910;5.840;2022-08-19T01:25:51;4.82;;;4.43;;
6475;SDS011;3271;51.910;5.840;2022-08-19T01:28:19;4.82;;;4.43;;
6475;SDS011;3271;51.910;5.840;2022-08-19T01:30:46;5.15;;;4.60;;
6475;SDS011;3271;51.910;5.840;2022-08-19T01:33:13;4.75;;;4.35;;
6475;SDS011;3271;51.910;5.840;2022-08-19T01:35:39;5.32;;;4.80;;
6475;SDS011;3271;51.910;5.840;2022-08-19T01:38:06;4.97;;;4.55;;
6475;SDS011;3271;51.910;5.840;2022-08-19T01:40:32;5.15;;;4.70;;
6475;SDS011;3271;51.910;5.840;2022-08-19T01:42:59;4.70;;;4.30;;
6475;SDS011;3271;51.910;5.840;2022-08-19T01:45:26;5.38;;;4.90;;
6475;SDS011;3271;51.910;5.840;2022-08-19T01:47:53;5.05;;;4.63;;
6475;SDS011;3271;51.910;5.840;2022-08-19T01:50:19;5.20;;;4.65;;
6475;SDS011;3271;51.910;5.840;2022-08-19T01:52:45;4.55;;;4.25;;
6475;SDS011;3271;51.910;5.840;2022-08-19T01:55:13;4.72;;;4.32;;
6475;SDS011;3271;51.910;5.840;2022-08-19T01:57:41;5.40;;;4.90;;
6475;SDS011;3271;51.910;5.840;2022-08-19T02:00:09;5.75;;;4.68;;
6475;SDS011;3271;51.910;5.840;2022-08-19T02:02:36;4.85;;;4.45;;
6475;SDS011;3271;51.910;5.840;2022-08-19T02:05:02;5.32;;;4.90;;
6475;SDS011;3271;51.910;5.840;2022-08-19T02:07:28;5.40;;;4.90;;
6475;SDS011;3271;51.910;5.840;2022-08-19T02:09:54;5.38;;;4.88;;
6475;SDS011;3271;51.910;5.840;2022-08-19T02:12:21;4.85;;;4.45;;
6475;SDS011;3271;51.910;5.840;2022-08-19T02:14:47;5.15;;;4.47;;
6475;SDS011;3271;51.910;5.840;2022-08-19T02:17:13;5.70;;;5.20;;
6475;SDS011;3271;51.910;5.840;2022-08-19T02:19:39;5.28;;;4.85;;
6475;SDS011;3271;51.910;5.840;2022-08-19T02:22:05;5.35;;;4.90;;
6475;SDS011;3271;51.910;5.840;2022-08-19T02:24:31;5.43;;;4.93;;
6475;SDS011;3271;51.910;5.840;2022-08-19T02:26:57;6.72;;;5.13;;
6475;SDS011;3271;51.910;5.840;2022-08-19T02:29:23;6.40;;;5.80;;
6475;SDS011;3271;51.910;5.840;2022-08-19T02:31:49;8.20;;;6.22;;
6475;SDS011;3271;51.910;5.840;2022-08-19T02:34:16;6.47;;;5.97;;
6475;SDS011;3271;51.910;5.840;2022-08-19T02:36:42;6.00;;;5.50;;
6475;SDS011;3271;51.910;5.840;2022-08-19T02:39:09;6.03;;;5.53;;
6475;SDS011;3271;51.910;5.840;2022-08-19T02:41:34;5.72;;;5.13;;
6475;SDS011;3271;51.910;5.840;2022-08-19T02:44:01;5.70;;;5.20;;
6475;SDS011;3271;51.910;5.840;2022-08-19T02:46:29;7.65;;;5.97;;
6475;SDS011;3271;51.910;5.840;2022-08-19T02:48:57;6.10;;;5.60;;
6475;SDS011;3271;51.910;5.840;2022-08-19T02:51:27;6.80;;;6.20;;
6475;SDS011;3271;51.910;5.840;2022-08-19T02:53:53;5.65;;;5.15;;
6475;SDS011;3271;51.910;5.840;2022-08-19T02:56:20;6.80;;;6.20;;
6475;SDS011;3271;51.910;5.840;2022-08-19T02:58:46;6.82;;;6.10;;
6475;SDS011;3271;51.910;5.840;2022-08-19T03:01:19;6.97;;;6.38;;
6475;SDS011;3271;51.910;5.840;2022-08-19T03:03:45;6.55;;;6.00;;
6475;SDS011;3271;51.910;5.840;2022-08-19T03:06:12;6.10;;;5.60;;
6475;SDS011;3271;51.910;5.840;2022-08-19T03:08:39;5.45;;;5.03;;
6475;SDS011;3271;51.910;5.840;2022-08-19T03:11:06;5.97;;;5.40;;
6475;SDS011;3271;51.910;5.840;2022-08-19T03:13:32;5.07;;;4.68;;
6475;SDS011;3271;51.910;5.840;2022-08-19T03:15:58;5.82;;;5.32;;
6475;SDS011;3271;51.910;5.840;2022-08-19T03:18:24;5.47;;;5.03;;
6475;SDS011;3271;51.910;5.840;2022-08-19T03:20:50;6.18;;;5.28;;
6475;SDS011;3271;51.910;5.840;2022-08-19T03:23:19;6.63;;;6.05;;
6475;SDS011;3271;51.910;5.840;2022-08-19T03:25:46;6.63;;;6.03;;
6475;SDS011;3271;51.910;5.840;2022-08-19T03:28:14;6.55;;;6.05;;
6475;SDS011;3271;51.910;5.840;2022-08-19T03:30:41;6.65;;;6.15;;
6475;SDS011;3271;51.910;5.840;2022-08-19T03:33:08;7.68;;;6.97;;
6475;SDS011;3271;51.910;5.840;2022-08-19T03:35:35;7.38;;;6.78;;
6475;SDS011;3271;51.910;5.840;2022-08-19T03:38:04;8.20;;;7.47;;
6475;SDS011;3271;51.910;5.840;2022-08-19T03:40:31;8.35;;;7.65;;
6475;SDS011;3271;51.910;5.840;2022-08-19T03:42:59;8.32;;;7.63;;
6475;SDS011;3271;51.910;5.840;2022-08-19T03:45:25;8.27;;;7.53;;
6475;SDS011;3271;51.910;5.840;2022-08-19T03:47:52;8.80;;;8.02;;
6475;SDS011;3271;51.910;5.840;2022-08-19T03:50:18;9.30;;;8.38;;
6475;SDS011;3271;51.910;5.840;2022-08-19T03:52:47;8.98;;;8.10;;
6475;SDS011;3271;51.910;5.840;2022-08-19T03:55:13;8.38;;;7.60;;
6475;SDS011;3271;51.910;5.840;2022-08-19T03:57:39;8.30;;;7.50;;
6475;SDS011;3271;51.910;5.840;2022-08-19T04:00:05;8.90;;;8.10;;
6475;SDS011;3271;51.910;5.840;2022-08-19T04:02:32;8.32;;;7.45;;
6475;SDS011;3271;51.910;5.840;2022-08-19T04:04:58;9.20;;;8.05;;
6475;SDS011;3271;51.910;5.840;2022-08-19T04:07:24;8.82;;;7.90;;
6475;SDS011;3271;51.910;5.840;2022-08-19T04:09:50;9.02;;;8.13;;
6475;SDS011;3271;51.910;5.840;2022-08-19T04:12:17;8.90;;;8.00;;
6475;SDS011;3271;51.910;5.840;2022-08-19T04:14:44;8.02;;;7.32;;
6475;SDS011;3271;51.910;5.840;2022-08-19T04:17:10;10.55;;;8.82;;
6475;SDS011;3271;51.910;5.840;2022-08-19T04:19:37;9.50;;;8.70;;
6475;SDS011;3271;51.910;5.840;2022-08-19T04:22:04;8.60;;;7.80;;
6475;SDS011;3271;51.910;5.840;2022-08-19T04:24:30;8.88;;;8.15;;
6475;SDS011;3271;51.910;5.840;2022-08-19T04:26:56;9.55;;;8.75;;
6475;SDS011;3271;51.910;5.840;2022-08-19T04:29:23;10.57;;;9.57;;
6475;SDS011;3271;51.910;5.840;2022-08-19T04:31:50;8.95;;;8.13;;
6475;SDS011;3271;51.910;5.840;2022-08-19T04:34:17;9.98;;;9.07;;
6475;SDS011;3271;51.910;5.840;2022-08-19T04:36:47;11.15;;;8.73;;
6475;SDS011;3271;51.910;5.840;2022-08-19T04:39:17;9.00;;;7.63;;
6475;SDS011;3271;51.910;5.840;2022-08-19T04:41:43;10.50;;;8.38;;
6475;SDS011;3271;51.910;5.840;2022-08-19T04:44:30;9.43;;;8.63;;
6475;SDS011;3271;51.910;5.840;2022-08-19T04:46:56;9.38;;;8.50;;
6475;SDS011;3271;51.910;5.840;2022-08-19T04:49:22;9.52;;;8.57;;
6475;SDS011;3271;51.910;5.840;2022-08-19T04:51:48;10.70;;;8.82;;
6475;SDS011;3271;51.910;5.840;2022-08-19T04:54:15;12.07;;;9.65;;
6475;SDS011;3271;51.910;5.840;2022-08-19T04:56:41;10.05;;;9.05;;
6475;SDS011;3271;51.910;5.840;2022-08-19T04:59:07;9.45;;;8.57;;
6475;SDS011;3271;51.910;5.840;2022-08-19T05:01:33;9.90;;;8.90;;
6475;SDS011;3271;51.910;5.840;2022-08-19T05:04:01;9.93;;;8.95;;
6475;SDS011;3271;51.910;5.840;2022-08-19T05:06:29;10.48;;;9.48;;
6475;SDS011;3271;51.910;5.840;2022-08-19T05:08:56;10.95;;;8.75;;
6475;SDS011;3271;51.910;5.840;2022-08-19T05:11:23;12.93;;;9.57;;
6475;SDS011;3271;51.910;5.840;2022-08-19T05:13:49;10.32;;;9.00;;
6475;SDS011;3271;51.910;5.840;2022-08-19T05:16:16;11.07;;;7.90;;
6475;SDS011;3271;51.910;5.840;2022-08-19T05:18:42;14.07;;;10.27;;
6475;SDS011;3271;51.910;5.840;2022-08-19T05:21:28;10.55;;;9.55;;
6475;SDS011;3271;51.910;5.840;2022-08-19T05:24:13;10.20;;;9.18;;
6475;SDS011;3271;51.910;5.840;2022-08-19T05:26:40;8.27;;;7.57;;
6475;SDS011;3271;51.910;5.840;2022-08-19T05:29:06;9.05;;;8.25;;
6475;SDS011;3271;51.910;5.840;2022-08-19T05:31:33;7.80;;;7.20;;
6475;SDS011;3271;51.910;5.840;2022-08-19T05:34:00;7.45;;;6.82;;
6475;SDS011;3271;51.910;5.840;2022-08-19T05:36:26;8.45;;;7.75;;
6475;SDS011;3271;51.910;5.840;2022-08-19T05:38:52;7.97;;;7.38;;
6475;SDS011;3271;51.910;5.840;2022-08-19T05:41:19;8.35;;;7.65;;
6475;SDS011;3271;51.910;5.840;2022-08-19T05:43:45;7.75;;;7.05;;
6475;SDS011;3271;51.910;5.840;2022-08-19T05:46:17;7.97;;;7.32;;
6475;SDS011;3271;51.910;5.840;2022-08-19T05:48:44;8.20;;;7.50;;
6475;SDS011;3271;51.910;5.840;2022-08-19T05:51:10;7.25;;;6.72;;
6475;SDS011;3271;51.910;5.840;2022-08-19T05:53:36;9.00;;;8.23;;
6475;SDS011;3271;51.910;5.840;2022-08-19T05:56:09;12.00;;;9.52;;
6475;SDS011;3271;51.910;5.840;2022-08-19T05:58:36;14.13;;;9.60;;
6475;SDS011;3271;51.910;5.840;2022-08-19T06:01:03;12.60;;;10.65;;
6475;SDS011;3271;51.910;5.840;2022-08-19T06:03:33;12.50;;;11.40;;
6475;SDS011;3271;51.910;5.840;2022-08-19T06:05:59;13.00;;;11.65;;
6475;SDS011;3271;51.910;5.840;2022-08-19T06:08:27;13.18;;;11.98;;
6475;SDS011;3271;51.910;5.840;2022-08-19T06:10:53;13.35;;;12.02;;
6475;SDS011;3271;51.910;5.840;2022-08-19T06:13:19;16.95;;;15.15;;
6475;SDS011;3271;51.910;5.840;2022-08-19T06:15:45;20.65;;;17.08;;
6475;SDS011;3271;51.910;5.840;2022-08-19T06:18:12;26.15;;;17.92;;
6475;SDS011;3271;51.910;5.840;2022-08-19T06:20:38;24.02;;;17.95;;
6475;SDS011;3271;51.910;5.840;2022-08-19T06:23:04;27.73;;;17.65;;
6475;SDS011;3271;51.910;5.840;2022-08-19T06:25:30;24.67;;;19.33;;
6475;SDS011;3271;51.910;5.840;2022-08-19T06:27:56;26.27;;;19.08;;
6475;SDS011;3271;51.910;5.840;2022-08-19T06:30:22;24.45;;;19.60;;
6475;SDS011;3271;51.910;5.840;2022-08-19T06:32:48;26.10;;;21.77;;
6475;SDS011;3271;51.910;5.840;2022-08-19T06:35:14;26.70;;;22.23;;
6475;SDS011;3271;51.910;5.840;2022-08-19T06:37:40;25.33;;;21.00;;
6475;SDS011;3271;51.910;5.840;2022-08-19T06:40:07;27.38;;;22.42;;
6475;SDS011;3271;51.910;5.840;2022-08-19T06:42:35;28.55;;;23.85;;
6475;SDS011;3271;51.910;5.840;2022-08-19T06:45:03;26.98;;;22.80;;
6475;SDS011;3271;51.910;5.840;2022-08-19T06:47:30;32.20;;;24.10;;
6475;SDS011;3271;51.910;5.840;2022-08-19T06:49:57;34.08;;;26.77;;
6475;SDS011;3271;51.910;5.840;2022-08-19T06:52:27;43.78;;;29.00;;
6475;SDS011;3271;51.910;5.840;2022-08-19T06:54:53;50.90;;;32.90;;
6475;SDS011;3271;51.910;5.840;2022-08-19T06:57:21;57.83;;;33.00;;
6475;SDS011;3271;51.910;5.840;2022-08-19T06:59:47;64.10;;;35.40;;
6475;SDS011;3271;51.910;5.840;2022-08-19T07:02:13;64.35;;;33.42;;
6475;SDS011;3271;51.910;5.840;2022-08-19T07:04:39;59.60;;;32.92;;
6475;SDS011;3271;51.910;5.840;2022-08-19T07:07:09;64.10;;;34.65;;
6475;SDS011;3271;51.910;5.840;2022-08-19T07:09:38;66.18;;;34.72;;
6475;SDS011;3271;51.910;5.840;2022-08-19T07:12:05;61.05;;;35.70;;
6475;SDS011;3271;51.910;5.840;2022-08-19T07:14:31;59.05;;;31.83;;
6475;SDS011;3271;51.910;5.840;2022-08-19T07:16:57;55.10;;;33.15;;
6475;SDS011;3271;51.910;5.840;2022-08-19T07:19:24;59.60;;;37.30;;
6475;SDS011;3271;51.910;5.840;2022-08-19T07:21:54;57.28;;;35.33;;
6475;SDS011;3271;51.910;5.840;2022-08-19T07:24:22;64.05;;;38.20;;
6475;SDS011;3271;51.910;5.840;2022-08-19T07:26:49;54.10;;;35.00;;
6475;SDS011;3271;51.910;5.840;2022-08-19T07:29:15;51.60;;;35.03;;
6475;SDS011;3271;51.910;5.840;2022-08-19T07:31:41;48.90;;;35.05;;
6475;SDS011;3271;51.910;5.840;2022-08-19T07:34:10;50.33;;;34.53;;
6475;SDS011;3271;51.910;5.840;2022-08-19T07:36:39;47.55;;;34.30;;
6475;SDS011;3271;51.910;5.840;2022-08-19T07:39:07;48.38;;;35.08;;
6475;SDS011;3271;51.910;5.840;2022-08-19T07:41:34;45.72;;;36.15;;
6475;SDS011;3271;51.910;5.840;2022-08-19T07:44:02;51.35;;;37.30;;
6475;SDS011;3271;51.910;5.840;2022-08-19T07:46:31;42.78;;;33.88;;
6475;SDS011;3271;51.910;5.840;2022-08-19T07:48:58;51.38;;;37.38;;
6475;SDS011;3271;51.910;5.840;2022-08-19T07:51:25;47.13;;;34.97;;
6475;SDS011;3271;51.910;5.840;2022-08-19T07:53:51;46.53;;;34.78;;
6475;SDS011;3271;51.910;5.840;2022-08-19T07:56:19;46.28;;;35.80;;
6475;SDS011;3271;51.910;5.840;2022-08-19T07:58:46;46.50;;;35.58;;
6475;SDS011;3271;51.910;5.840;2022-08-19T08:01:14;47.72;;;35.42;;
6475;SDS011;3271;51.910;5.840;2022-08-19T08:03:40;46.70;;;34.00;;
6475;SDS011;3271;51.910;5.840;2022-08-19T08:06:25;51.05;;;38.35;;
6475;SDS011;3271;51.910;5.840;2022-08-19T08:09:10;47.58;;;35.83;;
6475;SDS011;3271;51.910;5.840;2022-08-19T08:11:40;53.42;;;36.90;;
6475;SDS011;3271;51.910;5.840;2022-08-19T08:14:07;45.33;;;35.88;;
6475;SDS011;3271;51.910;5.840;2022-08-19T08:16:34;45.33;;;33.70;;
6475;SDS011;3271;51.910;5.840;2022-08-19T08:19:00;47.35;;;36.25;;
6475;SDS011;3271;51.910;5.840;2022-08-19T08:21:27;44.15;;;33.33;;
6475;SDS011;3271;51.910;5.840;2022-08-19T08:23:52;42.63;;;31.77;;
6475;SDS011;3271;51.910;5.840;2022-08-19T08:26:20;41.47;;;31.23;;
6475;SDS011;3271;51.910;5.840;2022-08-19T08:28:46;42.83;;;31.85;;
6475;SDS011;3271;51.910;5.840;2022-08-19T08:31:13;36.95;;;28.05;;
6475;SDS011;3271;51.910;5.840;2022-08-19T08:33:39;37.83;;;29.40;;
6475;SDS011;3271;51.910;5.840;2022-08-19T08:36:07;40.70;;;29.05;;
6475;SDS011;3271;51.910;5.840;2022-08-19T08:38:33;36.63;;;27.52;;
6475;SDS011;3271;51.910;5.840;2022-08-19T08:41:02;35.35;;;25.58;;
6475;SDS011;3271;51.910;5.840;2022-08-19T08:43:38;34.10;;;25.40;;
6475;SDS011;3271;51.910;5.840;2022-08-19T08:46:09;34.60;;;26.50;;
6475;SDS011;3271;51.910;5.840;2022-08-19T08:48:42;38.45;;;26.05;;
6475;SDS011;3271;51.910;5.840;2022-08-19T08:51:12;33.25;;;25.00;;
6475;SDS011;3271;51.910;5.840;2022-08-19T08:53:40;32.85;;;25.15;;
6475;SDS011;3271;51.910;5.840;2022-08-19T08:56:06;37.45;;;26.48;;
6475;SDS011;3271;51.910;5.840;2022-08-19T09:01:21;30.02;;;22.73;;
6475;SDS011;3271;51.910;5.840;2022-08-19T09:03:48;27.95;;;21.45;;
6475;SDS011;3271;51.910;5.840;2022-08-19T09:06:32;37.03;;;25.95;;
6475;SDS011;3271;51.910;5.840;2022-08-19T09:16:26;28.05;;;20.75;;
6475;SDS011;3271;51.910;5.840;2022-08-19T09:18:54;28.23;;;22.88;;
6475;SDS011;3271;51.910;5.840;2022-08-19T09:21:22;30.65;;;22.67;;
6475;SDS011;3271;51.910;5.840;2022-08-19T09:23:50;28.90;;;22.30;;
6475;SDS011;3271;51.910;5.840;2022-08-19T09:26:17;32.60;;;23.00;;
6475;SDS011;3271;51.910;5.840;2022-08-19T09:28:45;34.03;;;25.90;;
6475;SDS011;3271;51.910;5.840;2022-08-19T09:31:13;31.23;;;22.95;;
6475;SDS011;3271;51.910;5.840;2022-08-19T09:33:39;30.70;;;22.17;;
6475;SDS011;3271;51.910;5.840;2022-08-19T09:36:09;29.63;;;21.98;;
6475;SDS011;3271;51.910;5.840;2022-08-19T09:38:36;29.98;;;21.98;;
6475;SDS011;3271;51.910;5.840;2022-08-19T09:41:06;34.50;;;25.40;;
6475;SDS011;3271;51.910;5.840;2022-08-19T09:43:32;34.63;;;24.58;;
6475;SDS011;3271;51.910;5.840;2022-08-19T09:46:01;35.63;;;24.33;;
6475;SDS011;3271;51.910;5.840;2022-08-19T09:48:27;32.05;;;23.35;;
6475;SDS011;3271;51.910;5.840;2022-08-19T09:50:53;27.63;;;20.98;;
6475;SDS011;3271;51.910;5.840;2022-08-19T09:53:19;30.88;;;23.48;;
6475;SDS011;3271;51.910;5.840;2022-08-19T09:55:47;28.42;;;21.13;;
6475;SDS011;3271;51.910;5.840;2022-08-19T09:58:13;30.95;;;20.30;;
6475;SDS011;3271;51.910;5.840;2022-08-19T10:00:39;27.80;;;21.92;;
6475;SDS011;3271;51.910;5.840;2022-08-19T10:03:05;25.65;;;19.10;;
6475;SDS011;3271;51.910;5.840;2022-08-19T10:05:31;26.83;;;19.35;;
6475;SDS011;3271;51.910;5.840;2022-08-19T10:08:17;24.90;;;19.33;;
6475;SDS011;3271;51.910;5.840;2022-08-19T10:10:43;24.75;;;18.73;;
6475;SDS011;3271;51.910;5.840;2022-08-19T10:13:09;23.70;;;17.85;;
6475;SDS011;3271;51.910;5.840;2022-08-19T10:15:36;25.42;;;18.58;;
6475;SDS011;3271;51.910;5.840;2022-08-19T10:18:05;26.58;;;19.38;;
6475;SDS011;3271;51.910;5.840;2022-08-19T10:20:31;25.85;;;20.08;;
6475;SDS011;3271;51.910;5.840;2022-08-19T10:22:57;23.10;;;18.20;;
6475;SDS011;3271;51.910;5.840;2022-08-19T10:25:24;26.40;;;20.00;;
6475;SDS011;3271;51.910;5.840;2022-08-19T10:27:51;27.08;;;18.70;;
6475;SDS011;3271;51.910;5.840;2022-08-19T10:30:17;22.67;;;19.65;;
6475;SDS011;3271;51.910;5.840;2022-08-19T10:32:43;23.27;;;17.60;;
6475;SDS011;3271;51.910;5.840;2022-08-19T10:35:10;23.95;;;19.70;;
6475;SDS011;3271;51.910;5.840;2022-08-19T10:37:37;23.40;;;17.77;;
6475;SDS011;3271;51.910;5.840;2022-08-19T10:40:04;23.05;;;17.85;;
6475;SDS011;3271;51.910;5.840;2022-08-19T10:42:31;22.95;;;18.73;;
6475;SDS011;3271;51.910;5.840;2022-08-19T10:44:57;24.85;;;18.67;;
6475;SDS011;3271;51.910;5.840;2022-08-19T10:47:23;25.42;;;18.08;;
6475;SDS011;3271;51.910;5.840;2022-08-19T10:49:49;24.50;;;17.65;;
6475;SDS011;3271;51.910;5.840;2022-08-19T10:52:34;24.80;;;17.08;;
6475;SDS011;3271;51.910;5.840;2022-08-19T10:55:01;20.67;;;17.40;;
6475;SDS011;3271;51.910;5.840;2022-08-19T10:57:45;21.75;;;17.23;;
6475;SDS011;3271;51.910;5.840;2022-08-19T11:00:12;23.58;;;18.73;;
6475;SDS011;3271;51.910;5.840;2022-08-19T11:02:38;25.40;;;18.48;;
6475;SDS011;3271;51.910;5.840;2022-08-19T11:05:04;22.75;;;18.48;;
6475;SDS011;3271;51.910;5.840;2022-08-19T11:07:31;24.17;;;18.08;;
6475;SDS011;3271;51.910;5.840;2022-08-19T11:09:57;23.15;;;19.73;;
6475;SDS011;3271;51.910;5.840;2022-08-19T11:12:23;24.63;;;19.77;;
6475;SDS011;3271;51.910;5.840;2022-08-19T11:14:49;22.67;;;17.55;;
6475;SDS011;3271;51.910;5.840;2022-08-19T11:17:15;24.25;;;18.25;;
6475;SDS011;3271;51.910;5.840;2022-08-19T11:19:41;22.65;;;17.95;;
6475;SDS011;3271;51.910;5.840;2022-08-19T11:22:08;21.65;;;15.77;;
6475;SDS011;3271;51.910;5.840;2022-08-19T11:24:34;19.02;;;15.70;;
6475;SDS011;3271;51.910;5.840;2022-08-19T11:27:05;21.77;;;16.85;;
6475;SDS011;3271;51.910;5.840;2022-08-19T11:29:32;23.27;;;16.77;;
6475;SDS011;3271;51.910;5.840;2022-08-19T11:31:59;24.63;;;19.60;;
6475;SDS011;3271;51.910;5.840;2022-08-19T11:34:26;21.83;;;15.70;;
6475;SDS011;3271;51.910;5.840;2022-08-19T11:36:53;22.88;;;16.05;;
6475;SDS011;3271;51.910;5.840;2022-08-19T11:39:22;20.58;;;16.90;;
6475;SDS011;3271;51.910;5.840;2022-08-19T11:41:48;22.23;;;17.48;;
6475;SDS011;3271;51.910;5.840;2022-08-19T11:44:14;21.13;;;16.33;;
6475;SDS011;3271;51.910;5.840;2022-08-19T11:46:41;21.00;;;16.80;;
6475;SDS011;3271;51.910;5.840;2022-08-19T11:49:11;20.92;;;18.10;;
6475;SDS011;3271;51.910;5.840;2022-08-19T11:51:37;22.27;;;18.15;;
6475;SDS011;3271;51.910;5.840;2022-08-19T11:54:04;20.85;;;17.25;;
6475;SDS011;3271;51.910;5.840;2022-08-19T11:56:31;22.55;;;19.77;;
6475;SDS011;3271;51.910;5.840;2022-08-19T11:58:57;19.52;;;16.67;;
6475;SDS011;3271;51.910;5.840;2022-08-19T12:01:23;20.55;;;17.60;;
6475;SDS011;3271;51.910;5.840;2022-08-19T12:03:50;23.77;;;19.88;;
6475;SDS011;3271;51.910;5.840;2022-08-19T12:06:21;23.75;;;18.33;;
6475;SDS011;3271;51.910;5.840;2022-08-19T12:08:52;24.60;;;20.45;;
6475;SDS011;3271;51.910;5.840;2022-08-19T12:11:18;23.75;;;18.23;;
6475;SDS011;3271;51.910;5.840;2022-08-19T12:13:44;25.52;;;20.20;;
6475;SDS011;3271;51.910;5.840;2022-08-19T12:16:15;27.38;;;22.30;;
6475;SDS011;3271;51.910;5.840;2022-08-19T12:18:42;30.20;;;22.27;;
6475;SDS011;3271;51.910;5.840;2022-08-19T12:21:15;28.55;;;23.13;;
6475;SDS011;3271;51.910;5.840;2022-08-19T12:23:42;26.08;;;22.50;;
6475;SDS011;3271;51.910;5.840;2022-08-19T12:26:09;29.00;;;24.10;;
6475;SDS011;3271;51.910;5.840;2022-08-19T12:28:35;30.33;;;24.27;;
6475;SDS011;3271;51.910;5.840;2022-08-19T12:31:00;30.85;;;25.35;;
6475;SDS011;3271;51.910;5.840;2022-08-19T12:33:26;26.35;;;21.67;;
6475;SDS011;3271;51.910;5.840;2022-08-19T12:35:53;28.35;;;23.35;;
6475;SDS011;3271;51.910;5.840;2022-08-19T12:38:20;27.67;;;21.60;;
6475;SDS011;3271;51.910;5.840;2022-08-19T12:40:49;27.73;;;23.05;;
6475;SDS011;3271;51.910;5.840;2022-08-19T12:43:16;26.52;;;22.40;;
6475;SDS011;3271;51.910;5.840;2022-08-19T12:45:42;24.65;;;21.45;;
6475;SDS011;3271;51.910;5.840;2022-08-19T12:48:10;29.90;;;25.52;;
6475;SDS011;3271;51.910;5.840;2022-08-19T12:50:38;27.85;;;25.02;;
6475;SDS011;3271;51.910;5.840;2022-08-19T12:53:04;24.15;;;20.27;;
6475;SDS011;3271;51.910;5.840;2022-08-19T12:55:30;25.23;;;22.52;;
6475;SDS011;3271;51.910;5.840;2022-08-19T12:57:56;27.90;;;23.35;;
6475;SDS011;3271;51.910;5.840;2022-08-19T13:00:22;25.30;;;22.55;;
6475;SDS011;3271;51.910;5.840;2022-08-19T13:02:50;25.08;;;20.42;;
6475;SDS011;3271;51.910;5.840;2022-08-19T13:05:25;28.88;;;24.45;;
6475;SDS011;3271;51.910;5.840;2022-08-19T13:07:52;21.92;;;17.98;;
6475;SDS011;3271;51.910;5.840;2022-08-19T13:10:20;22.75;;;19.70;;
6475;SDS011;3271;51.910;5.840;2022-08-19T13:12:48;25.98;;;21.67;;
6475;SDS011;3271;51.910;5.840;2022-08-19T13:15:14;24.48;;;20.30;;
6475;SDS011;3271;51.910;5.840;2022-08-19T13:17:45;23.27;;;20.80;;
6475;SDS011;3271;51.910;5.840;2022-08-19T13:20:14;20.30;;;17.73;;
6475;SDS011;3271;51.910;5.840;2022-08-19T13:22:40;17.58;;;15.88;;
6475;SDS011;3271;51.910;5.840;2022-08-19T13:25:07;21.52;;;18.88;;
6475;SDS011;3271;51.910;5.840;2022-08-19T13:27:33;20.70;;;18.45;;
6475;SDS011;3271;51.910;5.840;2022-08-19T13:29:59;19.25;;;15.60;;
6475;SDS011;3271;51.910;5.840;2022-08-19T13:32:44;21.55;;;19.35;;
6475;SDS011;3271;51.910;5.840;2022-08-19T13:35:28;23.70;;;20.85;;
6475;SDS011;3271;51.910;5.840;2022-08-19T13:37:54;22.88;;;20.10;;
6475;SDS011;3271;51.910;5.840;2022-08-19T13:40:24;18.85;;;16.92;;
6475;SDS011;3271;51.910;5.840;2022-08-19T13:42:51;21.88;;;18.40;;
6475;SDS011;3271;51.910;5.840;2022-08-19T13:45:19;22.15;;;19.67;;
6475;SDS011;3271;51.910;5.840;2022-08-19T13:47:45;22.33;;;19.95;;
6475;SDS011;3271;51.910;5.840;2022-08-19T13:50:12;25.65;;;21.67;;
6475;SDS011;3271;51.910;5.840;2022-08-19T13:52:39;20.42;;;18.23;;
6475;SDS011;3271;51.910;5.840;2022-08-19T13:55:06;24.80;;;20.42;;
6475;SDS011;3271;51.910;5.840;2022-08-19T13:57:33;26.48;;;21.48;;
6475;SDS011;3271;51.910;5.840;2022-08-19T13:59:59;25.08;;;18.73;;
6475;SDS011;3271;51.910;5.840;2022-08-19T14:02:25;20.73;;;16.75;;
6475;SDS011;3271;51.910;5.840;2022-08-19T14:04:51;20.48;;;17.70;;
6475;SDS011;3271;51.910;5.840;2022-08-19T14:07:17;18.20;;;16.02;;
6475;SDS011;3271;51.910;5.840;2022-08-19T14:09:43;22.58;;;18.40;;
6475;SDS011;3271;51.910;5.840;2022-08-19T14:12:09;19.80;;;17.70;;
6475;SDS011;3271;51.910;5.840;2022-08-19T14:14:38;17.30;;;15.32;;
6475;SDS011;3271;51.910;5.840;2022-08-19T14:17:05;17.02;;;15.23;;
6475;SDS011;3271;51.910;5.840;2022-08-19T14:19:31;18.63;;;15.02;;
6475;SDS011;3271;51.910;5.840;2022-08-19T14:21:58;23.58;;;17.90;;
6475;SDS011;3271;51.910;5.840;2022-08-19T14:24:23;24.85;;;20.00;;
6475;SDS011;3271;51.910;5.840;2022-08-19T14:26:49;21.58;;;17.52;;
6475;SDS011;3271;51.910;5.840;2022-08-19T14:29:15;22.85;;;16.70;;
6475;SDS011;3271;51.910;5.840;2022-08-19T14:31:42;24.38;;;18.92;;
6475;SDS011;3271;51.910;5.840;2022-08-19T14:34:08;20.98;;;17.45;;
6475;SDS011;3271;51.910;5.840;2022-08-19T14:36:35;19.85;;;16.42;;
6475;SDS011;3271;51.910;5.840;2022-08-19T14:39:01;19.98;;;16.90;;
6475;SDS011;3271;51.910;5.840;2022-08-19T14:41:27;21.83;;;16.30;;
6475;SDS011;3271;51.910;5.840;2022-08-19T14:43:53;16.17;;;14.00;;
6475;SDS011;3271;51.910;5.840;2022-08-19T14:46:21;16.60;;;13.88;;
6475;SDS011;3271;51.910;5.840;2022-08-19T14:48:47;15.68;;;12.57;;
6475;SDS011;3271;51.910;5.840;2022-08-19T14:51:14;13.55;;;11.27;;
6475;SDS011;3271;51.910;5.840;2022-08-19T14:53:40;9.48;;;8.00;;
6475;SDS011;3271;51.910;5.840;2022-08-19T14:56:07;7.90;;;6.63;;
6475;SDS011;3271;51.910;5.840;2022-08-19T14:58:34;10.48;;;8.07;;
6475;SDS011;3271;51.910;5.840;2022-08-19T15:01:00;14.15;;;12.35;;
6475;SDS011;3271;51.910;5.840;2022-08-19T15:03:26;12.90;;;11.35;;
6475;SDS011;3271;51.910;5.840;2022-08-19T15:05:53;14.90;;;11.85;;
6475;SDS011;3271;51.910;5.840;2022-08-19T15:08:20;15.43;;;13.20;;
6475;SDS011;3271;51.910;5.840;2022-08-19T15:10:47;14.50;;;12.95;;